createdAt,value
2018-11-01T00:00:20.627Z,78.33
2018-11-01T00:01:20.595Z,78.85
2018-11-01T00:02:20.653Z,78.96
2018-11-01T00:03:20.572Z,78.75
2018-11-01T00:04:20.568Z,78.54
2018-11-01T00:05:20.610Z,78.64
2018-11-01T00:06:20.541Z,78.96
2018-11-01T00:07:20.528Z,78.96
2018-11-01T00:08:20.517Z,78.64
2018-11-01T00:09:20.506Z,79.16
2018-11-01T00:10:20.502Z,79.26
2018-11-01T00:11:20.534Z,79.50
2018-11-01T00:12:20.475Z,79.71
2018-11-01T00:13:20.461Z,79.71
2018-11-01T00:14:20.452Z,79.50
2018-11-01T00:15:20.444Z,79.71
2018-11-01T00:16:20.447Z,79.50
2018-11-01T00:17:20.479Z,80.02
2018-11-01T00:18:20.423Z,80.12
2018-11-01T00:19:20.440Z,79.91
2018-11-01T00:20:20.386Z,79.91
2018-11-01T00:21:20.377Z,80.05
2018-11-01T00:22:20.364Z,80.22
2018-11-01T00:23:20.401Z,80.22
2018-11-01T00:24:20.343Z,80.02
2018-11-01T00:25:20.339Z,80.12
2018-11-01T00:26:20.322Z,80.47
2018-11-01T00:27:20.309Z,79.95
2018-11-01T00:28:20.297Z,79.91
2018-11-01T00:29:20.316Z,80.47
2018-11-01T00:30:20.276Z,80.74
2018-11-01T00:31:20.274Z,80.36
2018-11-01T00:32:20.256Z,81.81
2018-11-01T00:33:20.247Z,80.88
2018-11-01T00:34:20.233Z,80.26
2018-11-01T00:35:20.276Z,80.05
2018-11-01T00:36:20.212Z,80.36
2018-11-01T00:37:20.216Z,80.67
2018-11-01T00:38:20.201Z,80.36
2018-11-01T00:39:20.204Z,80.67
2018-11-01T00:40:20.181Z,81.70
2018-11-01T00:41:20.196Z,81.60
2018-11-01T00:42:20.161Z,81.49
2018-11-01T00:43:20.137Z,81.43
2018-11-01T00:44:20.137Z,81.33
2018-11-01T00:45:20.112Z,82.05
2018-11-01T00:46:20.103Z,81.95
2018-11-01T00:47:20.150Z,81.95
2018-11-01T00:48:20.082Z,82.25
2018-11-01T00:49:20.691Z,82.05
2018-11-01T00:50:20.059Z,82.15
2018-11-01T00:51:20.048Z,82.67
2018-11-01T00:52:20.069Z,82.67
2018-11-01T00:53:20.061Z,82.56
2018-11-01T00:54:20.017Z,82.46
2018-11-01T00:55:20.007Z,82.35
2018-11-01T00:56:19.995Z,83.18
2018-11-01T00:57:19.985Z,82.97
2018-11-01T00:58:20.022Z,82.77
2018-11-01T00:59:20.009Z,83.12
2018-11-01T01:00:19.951Z,82.25
2018-11-01T01:01:19.939Z,83.07
2018-11-01T01:02:19.930Z,82.91
2018-11-01T01:03:19.919Z,83.12
2018-11-01T01:04:19.916Z,83.32
2018-11-01T01:05:19.926Z,83.12
2018-11-01T01:06:19.886Z,83.84
2018-11-01T01:07:19.875Z,83.12
2018-11-01T01:08:19.868Z,83.12
2018-11-01T01:09:19.853Z,83.42
2018-11-01T01:10:19.857Z,82.91
2018-11-01T01:11:19.878Z,83.12
2018-11-01T01:12:19.821Z,83.12
2018-11-01T01:13:19.808Z,82.91
2018-11-01T01:14:19.800Z,83.22
2018-11-01T01:15:19.787Z,83.53
2018-11-01T01:16:19.785Z,82.91
2018-11-01T01:17:19.814Z,82.77
2018-11-01T01:18:19.758Z,83.22
2018-11-01T01:19:19.746Z,83.32
2018-11-01T01:20:19.733Z,83.42
2018-11-01T01:21:19.723Z,83.12
2018-11-01T01:22:19.720Z,83.12
2018-11-01T01:23:19.732Z,83.42
2018-11-01T01:24:19.693Z,83.12
2018-11-01T01:25:19.679Z,83.22
2018-11-01T01:26:19.671Z,83.07
2018-11-01T01:27:19.657Z,83.12
2018-11-01T01:28:19.658Z,82.97
2018-11-01T01:29:19.681Z,82.67
2018-11-01T01:30:19.639Z,82.87
2018-11-01T01:31:19.612Z,83.12
2018-11-01T01:32:19.608Z,83.18
2018-11-01T01:33:19.621Z,83.01
2018-11-01T01:34:19.608Z,83.32
2018-11-01T01:35:19.778Z,82.81
2018-11-01T01:36:19.563Z,82.91
2018-11-01T01:37:19.550Z,83.01
2018-11-01T01:38:19.539Z,83.53
2018-11-01T01:39:19.526Z,82.91
2018-11-01T01:40:19.520Z,83.94
2018-11-01T01:41:19.562Z,83.01
2018-11-01T01:42:19.495Z,83.94
2018-11-01T01:43:19.483Z,83.98
2018-11-01T01:44:19.473Z,83.84
2018-11-01T01:45:19.460Z,83.87
2018-11-01T01:46:19.449Z,84.39
2018-11-01T01:47:19.495Z,83.98
2018-11-01T01:48:19.430Z,84.19
2018-11-01T01:49:19.419Z,84.19
2018-11-01T01:50:19.455Z,83.98
2018-11-01T01:51:19.400Z,83.98
2018-11-01T01:52:19.387Z,83.98
2018-11-01T01:53:19.437Z,84.08
2018-11-01T01:54:19.362Z,85.15
2018-11-01T01:55:19.352Z,84.74
2018-11-01T01:56:19.341Z,84.74
2018-11-01T01:57:19.332Z,84.53
2018-11-01T01:58:19.319Z,85.05
2018-11-01T01:59:19.360Z,84.88
2018-11-01T02:00:19.301Z,85.25
2018-11-01T02:01:19.289Z,85.50
2018-11-01T02:02:19.276Z,85.81
2018-11-01T02:03:19.268Z,86.32
2018-11-01T02:04:19.256Z,85.71
2018-11-01T02:05:19.308Z,85.91
2018-11-01T02:06:19.232Z,85.71
2018-11-01T02:07:19.223Z,85.81
2018-11-01T02:08:19.211Z,86.47
2018-11-01T02:09:19.201Z,86.36
2018-11-01T02:10:19.190Z,86.43
2018-11-01T02:11:19.248Z,86.53
2018-11-01T02:12:19.168Z,86.43
2018-11-01T02:13:19.158Z,86.22
2018-11-01T02:14:19.145Z,86.43
2018-11-01T02:15:19.136Z,86.32
2018-11-01T02:16:19.124Z,86.22
2018-11-01T02:17:19.166Z,86.43
2018-11-01T02:18:19.127Z,86.02
2018-11-01T02:19:19.106Z,86.26
2018-11-01T02:20:19.092Z,86.02
2018-11-01T02:21:19.080Z,86.43
2018-11-01T02:22:19.060Z,86.36
2018-11-01T02:23:19.087Z,86.57
2018-11-01T02:24:19.040Z,86.43
2018-11-01T02:25:19.026Z,86.26
2018-11-01T02:26:19.019Z,86.16
2018-11-01T02:27:19.014Z,86.36
2018-11-01T02:28:18.993Z,86.26
2018-11-01T02:29:19.032Z,86.36
2018-11-01T02:30:18.976Z,86.26
2018-11-01T02:31:18.966Z,86.57
2018-11-01T02:32:18.953Z,86.88
2018-11-01T02:33:18.953Z,86.71
2018-11-01T02:34:18.932Z,86.61
2018-11-01T02:35:18.947Z,87.13
2018-11-01T02:36:18.910Z,86.71
2018-11-01T02:37:18.897Z,86.71
2018-11-01T02:38:18.999Z,86.82
2018-11-01T02:39:18.888Z,87.34
2018-11-01T02:40:18.873Z,86.96
2018-11-01T02:41:19.070Z,86.82
2018-11-01T02:42:18.842Z,86.86
2018-11-01T02:43:18.832Z,86.92
2018-11-01T02:44:18.819Z,86.82
2018-11-01T02:45:18.812Z,87.02
2018-11-01T02:46:18.801Z,87.13
2018-11-01T02:47:18.994Z,87.02
2018-11-01T02:48:18.781Z,86.65
2018-11-01T02:49:18.765Z,86.82
2018-11-01T02:50:18.766Z,87.02
2018-11-01T02:51:18.749Z,86.71
2018-11-01T02:52:18.756Z,87.02
2018-11-01T02:53:18.803Z,86.92
2018-11-01T02:54:18.717Z,87.02
2018-11-01T02:55:18.703Z,87.13
2018-11-01T02:56:18.692Z,86.82
2018-11-01T02:57:18.681Z,87.02
2018-11-01T02:58:18.672Z,86.82
2018-11-01T02:59:18.698Z,87.65
2018-11-01T03:00:18.662Z,86.82
2018-11-01T03:01:18.655Z,86.92
2018-11-01T03:02:18.629Z,86.82
2018-11-01T03:03:18.617Z,86.88
2018-11-01T03:04:18.603Z,86.88
2018-11-01T03:05:18.635Z,86.88
2018-11-01T03:06:18.583Z,86.88
2018-11-01T03:07:18.582Z,86.88
2018-11-01T03:08:18.571Z,86.88
2018-11-01T03:09:18.551Z,86.68
2018-11-01T03:10:18.541Z,86.88
2018-11-01T03:11:18.571Z,86.26
2018-11-01T03:12:18.517Z,86.68
2018-11-01T03:13:18.506Z,86.26
2018-11-01T03:14:18.518Z,86.68
2018-11-01T03:15:18.486Z,86.88
2018-11-01T03:16:18.473Z,86.47
2018-11-01T03:17:18.600Z,86.68
2018-11-01T03:18:18.453Z,86.92
2018-11-01T03:19:18.442Z,86.47
2018-11-01T03:20:18.442Z,87.02
2018-11-01T03:21:18.423Z,87.34
2018-11-01T03:22:18.424Z,87.02
2018-11-01T03:23:18.434Z,87.02
2018-11-01T03:24:18.389Z,87.17
2018-11-01T03:25:18.381Z,87.48
2018-11-01T03:26:18.403Z,87.79
2018-11-01T03:27:18.356Z,87.48
2018-11-01T03:28:18.345Z,87.68
2018-11-01T03:29:18.380Z,86.96
2018-11-01T03:30:18.329Z,87.58
2018-11-01T03:31:18.312Z,86.96
2018-11-01T03:32:18.308Z,86.86
2018-11-01T03:33:18.292Z,87.07
2018-11-01T03:34:18.347Z,86.55
2018-11-01T03:35:18.315Z,86.86
2018-11-01T03:36:18.258Z,87.17
2018-11-01T03:37:18.249Z,86.86
2018-11-01T03:38:18.352Z,87.17
2018-11-01T03:39:18.225Z,87.27
2018-11-01T03:40:18.215Z,87.48
2018-11-01T03:41:18.245Z,87.58
2018-11-01T03:42:18.213Z,87.79
2018-11-01T03:43:18.182Z,88.20
2018-11-01T03:44:18.185Z,88.51
2018-11-01T03:45:18.160Z,88.20
2018-11-01T03:46:18.150Z,88.51
2018-11-01T03:47:18.187Z,88.31
2018-11-01T03:48:18.129Z,87.79
2018-11-01T03:49:18.125Z,87.37
2018-11-01T03:50:18.129Z,87.58
2018-11-01T03:51:18.096Z,87.79
2018-11-01T03:52:18.145Z,87.58
2018-11-01T03:53:18.164Z,87.27
2018-11-01T03:54:18.072Z,87.58
2018-11-01T03:55:18.052Z,86.65
2018-11-01T03:56:18.044Z,87.27
2018-11-01T03:57:18.044Z,86.65
2018-11-01T03:58:18.019Z,87.07
2018-11-01T03:59:18.052Z,86.96
2018-11-01T04:00:17.998Z,86.96
2018-11-01T04:01:17.987Z,87.27
2018-11-01T04:02:17.981Z,86.86
2018-11-01T04:03:17.969Z,87.17
2018-11-01T04:04:17.962Z,87.62
2018-11-01T04:05:18.005Z,87.58
2018-11-01T04:06:17.958Z,87.37
2018-11-01T04:07:17.958Z,88.76
2018-11-01T04:08:17.933Z,87.83
2018-11-01T04:09:17.931Z,88.76
2018-11-01T04:10:17.897Z,87.83
2018-11-01T04:11:17.931Z,87.83
2018-11-01T04:12:17.936Z,87.89
2018-11-01T04:13:17.871Z,88.55
2018-11-01T04:14:17.860Z,88.34
2018-11-01T04:15:17.956Z,88.34
2018-11-01T04:16:17.834Z,87.83
2018-11-01T04:17:17.892Z,88.24
2018-11-01T04:18:17.807Z,88.28
2018-11-01T04:19:17.801Z,88.90
2018-11-01T04:20:17.790Z,88.59
2018-11-01T04:21:17.777Z,88.80
2018-11-01T04:22:17.770Z,89.11
2018-11-01T04:23:17.815Z,88.70
2018-11-01T04:24:17.746Z,88.90
2018-11-01T04:25:17.743Z,89.11
2018-11-01T04:26:17.732Z,88.90
2018-11-01T04:27:17.714Z,88.59
2018-11-01T04:28:17.704Z,88.70
2018-11-01T04:29:17.723Z,88.49
2018-11-01T04:30:17.688Z,88.07
2018-11-01T04:31:17.667Z,88.07
2018-11-01T04:32:17.652Z,88.07
2018-11-01T04:33:17.694Z,88.18
2018-11-01T04:34:17.636Z,88.90
2018-11-01T04:35:17.679Z,88.39
2018-11-01T04:36:17.705Z,88.90
2018-11-01T04:37:17.598Z,88.70
2018-11-01T04:38:17.587Z,89.01
2018-11-01T04:39:17.581Z,88.49
2018-11-01T04:40:17.565Z,88.49
2018-11-01T04:41:17.602Z,88.94
2018-11-01T04:42:17.544Z,88.94
2018-11-01T04:43:17.638Z,89.46
2018-11-01T04:44:17.573Z,89.56
2018-11-01T04:45:17.513Z,90.29
2018-11-01T04:46:17.502Z,89.98
2018-11-01T04:47:17.536Z,90.19
2018-11-01T04:48:17.481Z,90.19
2018-11-01T04:49:17.471Z,90.29
2018-11-01T04:50:17.457Z,89.98
2018-11-01T04:51:17.447Z,90.08
2018-11-01T04:52:17.437Z,90.19
2018-11-01T04:53:17.488Z,89.98
2018-11-01T04:54:17.426Z,90.33
2018-11-01T04:55:17.402Z,90.08
2018-11-01T04:56:17.390Z,90.29
2018-11-01T04:57:17.381Z,90.23
2018-11-01T04:58:17.371Z,90.29
2018-11-01T04:59:17.406Z,90.44
2018-11-01T05:00:17.367Z,90.39
2018-11-01T05:01:17.342Z,90.29
2018-11-01T05:02:17.325Z,90.29
2018-11-01T05:03:17.316Z,90.19
2018-11-01T05:04:17.304Z,90.08
2018-11-01T05:05:17.340Z,89.94
2018-11-01T05:06:17.293Z,90.08
2018-11-01T05:07:17.273Z,89.98
2018-11-01T05:08:17.285Z,90.39
2018-11-01T05:09:17.251Z,89.32
2018-11-01T05:10:17.240Z,88.80
2018-11-01T05:11:17.272Z,89.22
2018-11-01T05:12:17.228Z,88.70
2018-11-01T05:13:17.218Z,88.59
2018-11-01T05:14:17.201Z,88.34
2018-11-01T05:15:17.275Z,88.65
2018-11-01T05:16:17.182Z,87.48
2018-11-01T05:17:17.224Z,87.07
2018-11-01T05:18:17.167Z,87.17
2018-11-01T05:19:17.141Z,87.48
2018-11-01T05:20:17.189Z,86.96
2018-11-01T05:21:17.128Z,87.13
2018-11-01T05:22:17.127Z,87.13
2018-11-01T05:23:17.157Z,86.86
2018-11-01T05:24:17.090Z,86.96
2018-11-01T05:25:17.097Z,87.27
2018-11-01T05:26:17.066Z,86.71
2018-11-01T05:27:17.057Z,86.34
2018-11-01T05:28:17.060Z,86.41
2018-11-01T05:29:17.130Z,86.55
2018-11-01T05:30:17.024Z,86.65
2018-11-01T05:31:17.013Z,86.55
2018-11-01T05:32:17.002Z,86.41
2018-11-01T05:33:17.001Z,86.24
2018-11-01T05:34:17.027Z,86.65
2018-11-01T05:35:17.018Z,86.44
2018-11-01T05:36:16.961Z,86.82
2018-11-01T05:37:16.947Z,86.24
2018-11-01T05:38:16.940Z,87.07
2018-11-01T05:39:16.932Z,87.07
2018-11-01T05:40:16.925Z,87.07
2018-11-01T05:41:16.945Z,87.17
2018-11-01T05:42:16.896Z,87.21
2018-11-01T05:43:16.884Z,86.76
2018-11-01T05:44:16.874Z,86.69
2018-11-01T05:45:16.862Z,87.21
2018-11-01T05:46:16.853Z,87.07
2018-11-01T05:47:16.900Z,86.90
2018-11-01T05:48:16.841Z,87.00
2018-11-01T05:49:16.821Z,86.69
2018-11-01T05:50:16.822Z,87.62
2018-11-01T05:51:16.796Z,87.00
2018-11-01T05:52:16.787Z,87.62
2018-11-01T05:53:16.832Z,87.52
2018-11-01T05:54:16.763Z,87.73
2018-11-01T05:55:16.756Z,88.34
2018-11-01T05:56:16.742Z,88.65
2018-11-01T05:57:16.731Z,88.70
2018-11-01T05:58:16.728Z,88.39
2018-11-01T05:59:16.750Z,88.28
2018-11-01T06:00:16.699Z,88.07
2018-11-01T06:01:16.689Z,88.49
2018-11-01T06:02:16.678Z,88.39
2018-11-01T06:03:16.666Z,89.01
2018-11-01T06:04:16.679Z,88.90
2018-11-01T06:05:16.714Z,88.59
2018-11-01T06:06:16.638Z,88.80
2018-11-01T06:07:16.623Z,88.49
2018-11-01T06:08:16.615Z,88.80
2018-11-01T06:09:16.601Z,89.01
2018-11-01T06:10:16.594Z,89.11
2018-11-01T06:11:16.628Z,89.22
2018-11-01T06:12:16.631Z,89.42
2018-11-01T06:13:16.559Z,89.52
2018-11-01T06:14:16.550Z,89.22
2018-11-01T06:15:16.538Z,89.52
2018-11-01T06:16:16.532Z,89.42
2018-11-01T06:17:16.575Z,89.01
2018-11-01T06:18:16.529Z,89.22
2018-11-01T06:19:16.495Z,89.52
2018-11-01T06:20:16.487Z,89.42
2018-11-01T06:21:16.472Z,89.52
2018-11-01T06:22:16.464Z,90.35
2018-11-01T06:23:16.611Z,90.14
2018-11-01T06:24:16.459Z,90.20
2018-11-01T06:25:16.432Z,90.35
2018-11-01T06:26:16.421Z,89.28
2018-11-01T06:27:16.410Z,88.86
2018-11-01T06:28:16.401Z,87.89
2018-11-01T06:29:16.428Z,88.45
2018-11-01T06:30:16.423Z,88.41
2018-11-01T06:31:16.367Z,88.41
2018-11-01T06:32:16.354Z,88.71
2018-11-01T06:33:16.344Z,88.61
2018-11-01T06:34:16.331Z,88.51
2018-11-01T06:35:16.368Z,87.79
2018-11-01T06:36:16.314Z,87.68
2018-11-01T06:37:16.304Z,87.65
2018-11-01T06:38:16.295Z,87.23
2018-11-01T06:39:16.287Z,87.34
2018-11-01T06:40:16.278Z,87.13
2018-11-01T06:41:16.306Z,87.13
2018-11-01T06:42:16.244Z,87.02
2018-11-01T06:43:16.241Z,86.82
2018-11-01T06:44:16.269Z,87.02
2018-11-01T06:45:16.217Z,87.13
2018-11-01T06:46:16.251Z,87.08
2018-11-01T06:47:16.247Z,86.98
2018-11-01T06:48:16.244Z,86.98
2018-11-01T06:49:16.185Z,87.29
2018-11-01T06:50:16.167Z,87.08
2018-11-01T06:51:16.149Z,86.78
2018-11-01T06:52:16.172Z,86.98
2018-11-01T06:53:16.212Z,86.68
2018-11-01T06:54:16.131Z,86.88
2018-11-01T06:55:16.133Z,87.40
2018-11-01T06:56:16.105Z,86.57
2018-11-01T06:57:16.106Z,87.08
2018-11-01T06:58:16.101Z,86.88
2018-11-01T06:59:16.290Z,86.94
2018-11-01T07:00:16.062Z,86.98
2018-11-01T07:01:16.046Z,87.19
2018-11-01T07:02:16.050Z,87.15
2018-11-01T07:03:16.018Z,86.78
2018-11-01T07:04:16.054Z,86.57
2018-11-01T07:05:16.054Z,86.94
2018-11-01T07:06:16.018Z,87.40
2018-11-01T07:07:15.984Z,87.40
2018-11-01T07:08:15.971Z,86.63
2018-11-01T07:09:15.971Z,87.60
2018-11-01T07:10:15.954Z,87.71
2018-11-01T07:11:16.022Z,86.74
2018-11-01T07:12:15.927Z,87.71
2018-11-01T07:13:15.958Z,87.15
2018-11-01T07:14:15.902Z,87.71
2018-11-01T07:15:15.898Z,87.66
2018-11-01T07:16:15.887Z,88.39
2018-11-01T07:17:16.037Z,88.43
2018-11-01T07:18:15.874Z,87.77
2018-11-01T07:19:15.860Z,88.64
2018-11-01T07:20:15.885Z,87.81
2018-11-01T07:21:15.927Z,87.71
2018-11-01T07:22:15.822Z,87.26
2018-11-01T07:23:15.900Z,87.40
2018-11-01T07:24:15.825Z,87.71
2018-11-01T07:25:15.858Z,88.43
2018-11-01T07:26:15.964Z,88.84
2018-11-01T07:27:15.772Z,88.22
2018-11-01T07:28:15.767Z,88.43
2018-11-01T07:29:15.776Z,88.74
2018-11-01T07:30:15.735Z,88.53
2018-11-01T07:31:15.725Z,88.53
2018-11-01T07:32:15.709Z,88.22
2018-11-01T07:33:15.705Z,88.22
2018-11-01T07:34:15.691Z,88.32
2018-11-01T07:35:15.724Z,88.22
2018-11-01T07:36:15.685Z,88.32
2018-11-01T07:37:15.683Z,88.39
2018-11-01T07:38:15.636Z,88.70
2018-11-01T07:39:15.628Z,88.22
2018-11-01T07:40:15.623Z,88.22
2018-11-01T07:41:15.662Z,88.32
2018-11-01T07:42:15.606Z,88.80
2018-11-01T07:43:15.608Z,88.49
2018-11-01T07:44:15.574Z,88.70
2018-11-01T07:45:15.561Z,88.70
2018-11-01T07:46:15.566Z,88.90
2018-11-01T07:47:15.608Z,88.70
2018-11-01T07:48:15.551Z,89.01
2018-11-01T07:49:15.518Z,89.22
2018-11-01T07:50:15.516Z,88.59
2018-11-01T07:51:15.493Z,88.70
2018-11-01T07:52:15.497Z,88.80
2018-11-01T07:53:15.529Z,88.24
2018-11-01T07:54:15.480Z,87.98
2018-11-01T07:55:15.456Z,88.14
2018-11-01T07:56:15.440Z,88.24
2018-11-01T07:57:15.432Z,88.59
2018-11-01T07:58:15.479Z,88.90
2018-11-01T07:59:15.458Z,88.86
2018-11-01T08:00:15.399Z,88.76
2018-11-01T08:01:15.505Z,88.76
2018-11-01T08:02:15.460Z,87.83
2018-11-01T08:03:15.407Z,87.93
2018-11-01T08:04:15.377Z,87.83
2018-11-01T08:05:15.425Z,88.41
2018-11-01T08:06:15.342Z,88.20
2018-11-01T08:07:15.320Z,88.41
2018-11-01T08:08:15.324Z,87.79
2018-11-01T08:09:15.352Z,87.27
2018-11-01T08:10:15.294Z,86.66
2018-11-01T08:11:15.331Z,86.76
2018-11-01T08:12:15.271Z,86.97
2018-11-01T08:13:15.255Z,86.76
2018-11-01T08:14:15.257Z,86.52
2018-11-01T08:15:15.251Z,86.55
2018-11-01T08:16:15.228Z,86.61
2018-11-01T08:17:15.267Z,86.41
2018-11-01T08:18:15.209Z,86.31
2018-11-01T08:19:15.194Z,86.10
2018-11-01T08:20:15.501Z,86.31
2018-11-01T08:21:15.448Z,85.79
2018-11-01T08:22:15.172Z,86.06
2018-11-01T08:23:15.196Z,86.00
2018-11-01T08:24:15.142Z,85.86
2018-11-01T08:25:15.129Z,85.96
2018-11-01T08:26:15.113Z,85.96
2018-11-01T08:27:15.116Z,85.65
2018-11-01T08:28:15.122Z,86.06
2018-11-01T08:29:15.112Z,86.16
2018-11-01T08:30:15.143Z,86.16
2018-11-01T08:31:15.056Z,86.47
2018-11-01T08:32:15.048Z,85.82
2018-11-01T08:33:15.046Z,85.51
2018-11-01T08:34:15.049Z,85.71
2018-11-01T08:35:15.057Z,86.23
2018-11-01T08:36:15.004Z,85.82
2018-11-01T08:37:15.000Z,85.61
2018-11-01T08:38:15.013Z,85.92
2018-11-01T08:39:15.028Z,85.16
2018-11-01T08:40:14.965Z,85.51
2018-11-01T08:41:15.007Z,85.61
2018-11-01T08:42:14.940Z,85.51
2018-11-01T08:43:14.933Z,85.51
2018-11-01T08:44:14.930Z,85.51
2018-11-01T08:45:14.905Z,85.61
2018-11-01T08:46:14.894Z,85.26
2018-11-01T08:47:14.947Z,85.26
2018-11-01T08:48:14.869Z,84.75
2018-11-01T08:49:14.896Z,85.06
2018-11-01T08:50:14.859Z,85.06
2018-11-01T08:51:14.838Z,84.95
2018-11-01T08:52:14.827Z,85.16
2018-11-01T08:53:14.914Z,84.54
2018-11-01T08:54:14.804Z,84.75
2018-11-01T08:55:14.796Z,84.91
2018-11-01T08:56:14.780Z,85.02
2018-11-01T08:57:14.812Z,84.71
2018-11-01T08:58:14.774Z,85.02
2018-11-01T08:59:14.802Z,85.22
2018-11-01T09:00:14.742Z,84.71
2018-11-01T09:01:14.757Z,84.50
2018-11-01T09:02:14.720Z,84.71
2018-11-01T09:03:14.728Z,84.81
2018-11-01T09:04:14.720Z,84.50
2018-11-01T09:05:14.728Z,84.40
2018-11-01T09:06:14.681Z,84.81
2018-11-01T09:07:14.713Z,84.30
2018-11-01T09:08:14.663Z,84.16
2018-11-01T09:09:14.644Z,84.16
2018-11-01T09:10:14.678Z,84.36
2018-11-01T09:11:14.666Z,84.36
2018-11-01T09:12:14.616Z,84.67
2018-11-01T09:13:14.718Z,84.67
2018-11-01T09:14:14.608Z,84.67
2018-11-01T09:15:14.587Z,84.36
2018-11-01T09:16:14.575Z,84.36
2018-11-01T09:17:14.621Z,84.05
2018-11-01T09:18:14.562Z,83.95
2018-11-01T09:19:14.594Z,83.95
2018-11-01T09:20:14.527Z,83.95
2018-11-01T09:21:14.521Z,84.36
2018-11-01T09:22:14.611Z,84.16
2018-11-01T09:23:14.547Z,83.85
2018-11-01T09:24:14.494Z,83.50
2018-11-01T09:25:14.482Z,84.05
2018-11-01T09:26:14.461Z,84.01
2018-11-01T09:27:14.477Z,84.01
2018-11-01T09:28:14.440Z,83.91
2018-11-01T09:29:14.472Z,83.91
2018-11-01T09:30:14.427Z,84.01
2018-11-01T09:31:14.408Z,83.29
2018-11-01T09:32:14.401Z,83.70
2018-11-01T09:33:14.395Z,83.61
2018-11-01T09:34:14.372Z,83.70
2018-11-01T09:35:14.408Z,83.67
2018-11-01T09:36:14.360Z,83.81
2018-11-01T09:37:14.343Z,83.61
2018-11-01T09:38:14.337Z,84.39
2018-11-01T09:39:14.345Z,83.87
2018-11-01T09:40:14.311Z,83.87
2018-11-01T09:41:14.352Z,83.87
2018-11-01T09:42:14.297Z,83.26
2018-11-01T09:43:14.282Z,83.56
2018-11-01T09:44:14.260Z,83.67
2018-11-01T09:45:14.250Z,83.15
2018-11-01T09:46:14.501Z,82.43
2018-11-01T09:47:14.552Z,83.15
2018-11-01T09:48:14.244Z,82.75
2018-11-01T09:49:14.206Z,82.64
2018-11-01T09:50:14.197Z,82.50
2018-11-01T09:51:14.189Z,82.64
2018-11-01T09:52:14.170Z,82.60
2018-11-01T09:53:14.213Z,82.40
2018-11-01T09:54:14.167Z,82.09
2018-11-01T09:55:14.138Z,82.13
2018-11-01T09:56:14.148Z,82.23
2018-11-01T09:57:14.119Z,82.60
2018-11-01T09:58:14.143Z,81.99
2018-11-01T09:59:14.140Z,81.78
2018-11-01T10:00:14.117Z,81.78
2018-11-01T10:01:14.225Z,81.62
2018-11-01T10:02:14.068Z,81.06
2018-11-01T10:03:14.081Z,81.27
2018-11-01T10:04:14.043Z,81.27
2018-11-01T10:05:14.077Z,80.96
2018-11-01T10:06:14.096Z,81.37
2018-11-01T10:07:14.013Z,81.27
2018-11-01T10:08:14.004Z,81.34
2018-11-01T10:09:13.995Z,81.16
2018-11-01T10:10:13.985Z,81.23
2018-11-01T10:11:14.025Z,81.34
2018-11-01T10:12:13.996Z,81.34
2018-11-01T10:13:14.016Z,81.13
2018-11-01T10:14:13.942Z,81.23
2018-11-01T10:15:14.114Z,81.13
2018-11-01T10:16:13.983Z,81.02
2018-11-01T10:17:14.304Z,81.13
2018-11-01T10:18:14.341Z,81.02
2018-11-01T10:19:13.891Z,80.92
2018-11-01T10:20:13.866Z,81.60
2018-11-01T10:21:13.878Z,79.80
2018-11-01T10:22:13.919Z,80.41
2018-11-01T10:23:13.973Z,80.27
2018-11-01T10:24:13.826Z,80.07
2018-11-01T10:25:13.859Z,80.72
2018-11-01T10:26:13.827Z,80.07
2018-11-01T10:27:19.518Z,80.58
2018-11-01T10:28:13.791Z,79.66
2018-11-01T10:29:13.832Z,80.07
2018-11-01T10:30:13.830Z,80.37
2018-11-01T10:31:13.753Z,80.07
2018-11-01T10:32:13.774Z,80.27
2018-11-01T10:33:13.727Z,79.66
2018-11-01T10:34:13.724Z,79.66
2018-11-01T10:35:13.764Z,79.86
2018-11-01T10:36:13.703Z,79.75
2018-11-01T10:37:13.705Z,79.66
2018-11-01T10:38:13.686Z,79.55
2018-11-01T10:39:13.683Z,79.75
2018-11-01T10:40:13.663Z,79.66
2018-11-01T10:41:13.700Z,79.96
2018-11-01T10:42:13.633Z,79.04
2018-11-01T10:43:13.624Z,79.96
2018-11-01T10:44:13.621Z,79.62
2018-11-01T10:45:13.634Z,79.31
2018-11-01T10:46:13.600Z,79.21
2018-11-01T10:47:13.629Z,79.31
2018-11-01T10:48:13.569Z,78.80
2018-11-01T10:49:13.568Z,78.70
2018-11-01T10:50:13.582Z,79.17
2018-11-01T10:51:13.553Z,78.66
2018-11-01T10:52:13.522Z,78.05
2018-11-01T10:53:13.564Z,78.66
2018-11-01T10:54:13.608Z,78.45
2018-11-01T10:55:13.503Z,78.15
2018-11-01T10:56:13.506Z,78.35
2018-11-01T10:57:13.475Z,78.15
2018-11-01T10:58:13.471Z,77.84
2018-11-01T10:59:13.517Z,78.25
2018-11-01T11:00:13.542Z,78.05
2018-11-01T11:01:13.529Z,78.05
2018-11-01T11:02:13.431Z,78.01
2018-11-01T11:03:13.407Z,78.11
2018-11-01T11:04:13.394Z,78.42
2018-11-01T11:05:13.426Z,78.31
2018-11-01T11:06:13.377Z,78.11
2018-11-01T11:07:13.376Z,78.11
2018-11-01T11:08:13.350Z,78.01
2018-11-01T11:09:13.340Z,78.21
2018-11-01T11:10:13.341Z,78.01
2018-11-01T11:11:13.379Z,78.11
2018-11-01T11:12:13.317Z,79.13
2018-11-01T11:13:13.323Z,78.72
2018-11-01T11:14:13.303Z,78.72
2018-11-01T11:15:13.274Z,78.63
2018-11-01T11:16:13.263Z,78.38
2018-11-01T11:17:13.302Z,78.21
2018-11-01T11:18:13.241Z,78.69
2018-11-01T11:19:13.251Z,79.30
2018-11-01T11:20:13.384Z,78.79
2018-11-01T11:21:13.618Z,77.76
2018-11-01T11:22:13.199Z,78.17
2018-11-01T11:23:13.233Z,78.52
2018-11-01T11:24:13.185Z,80.02
2018-11-01T11:25:13.171Z,78.59
2018-11-01T11:26:13.153Z,78.79
2018-11-01T11:27:13.143Z,78.49
2018-11-01T11:28:13.148Z,78.17
2018-11-01T11:29:13.160Z,78.28
2018-11-01T11:30:13.275Z,77.83
2018-11-01T11:31:13.100Z,79.30
2018-11-01T11:32:13.088Z,79.30
2018-11-01T11:33:13.083Z,79.41
2018-11-01T11:34:13.070Z,79.41
2018-11-01T11:35:13.164Z,78.65
2018-11-01T11:36:13.070Z,78.79
2018-11-01T11:37:13.038Z,78.79
2018-11-01T11:38:13.017Z,79.10
2018-11-01T11:39:13.139Z,79.78
2018-11-01T11:40:12.997Z,79.82
2018-11-01T11:41:13.056Z,79.61
2018-11-01T11:42:12.986Z,80.33
2018-11-01T11:43:12.974Z,80.43
2018-11-01T11:44:12.968Z,80.33
2018-11-01T11:45:12.943Z,80.57
2018-11-01T11:46:12.930Z,81.08
2018-11-01T11:47:13.321Z,81.08
2018-11-01T11:48:12.911Z,81.29
2018-11-01T11:49:12.905Z,80.46
2018-11-01T11:50:12.907Z,81.08
2018-11-01T11:51:12.886Z,81.08
2018-11-01T11:52:12.900Z,80.98
2018-11-01T11:53:12.884Z,80.88
2018-11-01T11:54:12.843Z,81.49
2018-11-01T11:55:12.835Z,82.00
2018-11-01T11:56:12.835Z,82.51
2018-11-01T11:57:12.918Z,83.03
2018-11-01T11:58:12.798Z,82.51
2018-11-01T11:59:12.832Z,82.82
2018-11-01T12:00:12.778Z,83.13
2018-11-01T12:01:12.782Z,83.64
2018-11-01T12:02:12.808Z,83.27
2018-11-01T12:03:12.741Z,83.23
2018-11-01T12:04:12.730Z,83.13
2018-11-01T12:05:12.823Z,83.06
2018-11-01T12:06:12.839Z,83.06
2018-11-01T12:07:12.702Z,82.71
2018-11-01T12:08:12.729Z,83.06
2018-11-01T12:09:12.674Z,83.33
2018-11-01T12:10:12.663Z,83.03
2018-11-01T12:11:12.696Z,83.44
2018-11-01T12:12:12.643Z,83.44
2018-11-01T12:13:12.631Z,83.13
2018-11-01T12:14:12.697Z,82.92
2018-11-01T12:15:12.615Z,82.62
2018-11-01T12:16:12.599Z,82.51
2018-11-01T12:17:13.171Z,82.82
2018-11-01T12:18:12.576Z,81.90
2018-11-01T12:19:12.579Z,81.90
2018-11-01T12:20:12.576Z,82.62
2018-11-01T12:21:12.550Z,82.51
2018-11-01T12:22:12.564Z,82.07
2018-11-01T12:23:12.582Z,82.21
2018-11-01T12:24:12.511Z,81.49
2018-11-01T12:25:12.513Z,81.59
2018-11-01T12:26:12.501Z,81.08
2018-11-01T12:27:12.514Z,81.45
2018-11-01T12:28:12.555Z,80.88
2018-11-01T12:29:12.502Z,80.83
2018-11-01T12:30:12.464Z,81.04
2018-11-01T12:31:12.469Z,81.04
2018-11-01T12:32:12.438Z,80.94
2018-11-01T12:33:12.422Z,81.04
2018-11-01T12:34:12.426Z,81.24
2018-11-01T12:35:12.510Z,81.04
2018-11-01T12:36:12.443Z,81.04
2018-11-01T12:37:12.403Z,80.83
2018-11-01T12:38:12.362Z,80.83
2018-11-01T12:39:12.361Z,81.24
2018-11-01T12:40:12.355Z,80.94
2018-11-01T12:41:12.379Z,81.15
2018-11-01T12:42:12.314Z,81.21
2018-11-01T12:43:12.313Z,80.94
2018-11-01T12:44:12.298Z,81.04
2018-11-01T12:45:12.292Z,81.24
2018-11-01T12:46:12.276Z,80.43
2018-11-01T12:47:12.314Z,80.83
2018-11-01T12:48:12.254Z,81.65
2018-11-01T12:49:12.247Z,81.01
2018-11-01T12:50:12.419Z,82.84
2018-11-01T12:51:12.229Z,82.89
2018-11-01T12:52:12.237Z,83.15